Time;durP1;ratioP1;P1;durP2;ratioP2;P2;SDS_P1;SDS_P2;PMS_P1;PMS_P2;Temp;Humidity;BMP_temperature;BMP_pressure;BME280_temperature;BME280_humidity;BME280_pressure;Samples;Min_cycle;Max_cycle;Signal;HPM_P1;HPM_P2
2023/09/06 00:04:17;;;;;;;7.43;6.80;;;;;;;;;;2616107;54;20836;-77
2023/09/06 00:09:46;;;;;;;7.43;6.83;;;;;;;;;;2616513;54;20422;-77
2023/09/06 00:15:18;;;;;;;8.43;7.53;;;;;;;;;;2616270;54;20486;-77
2023/09/06 00:20:48;;;;;;;7.60;6.97;;;;;;;;;;2616767;54;20398;-74
2023/09/06 00:26:17;;;;;;;8.07;7.27;;;;;;;;;;2616368;54;21252;-74
2023/09/06 00:31:47;;;;;;;11.43;6.80;;;;;;;;;;2615513;39;20755;-74
2023/09/06 00:37:17;;;;;;;8.90;7.73;;;;;;;;;;2615356;54;20439;-74
2023/09/06 00:42:47;;;;;;;6.97;6.37;;;;;;;;;;2614834;54;20395;-74
2023/09/06 00:48:27;;;;;;;8.03;7.03;;;;;;;;;;2615068;54;20416;-74
2023/09/06 00:54:00;;;;;;;7.50;6.70;;;;;;;;;;2614812;54;20487;-74
2023/09/06 01:03:04;;;;;;;7.33;6.73;;;;;;;;;;2614812;54;20422;-73
2023/09/06 01:14:32;;;;;;;9.30;7.03;;;;;;;;;;2614238;54;20501;-76
2023/09/06 01:20:13;;;;;;;7.43;6.80;;;;;;;;;;2614963;54;20423;-74
2023/09/06 01:25:42;;;;;;;8.00;6.37;;;;;;;;;;2615082;54;20383;-74
2023/09/06 01:31:12;;;;;;;7.43;6.83;;;;;;;;;;2616014;54;20387;-78
2023/09/06 01:36:42;;;;;;;14.03;7.70;;;;;;;;;;2616822;39;20820;-78
2023/09/06 01:42:11;;;;;;;7.47;6.67;;;;;;;;;;2615311;54;20404;-78
2023/09/06 01:47:41;;;;;;;12.03;7.27;;;;;;;;;;2614639;54;20395;-79
2023/09/06 01:53:13;;;;;;;8.50;7.70;;;;;;;;;;2615729;39;20917;-78
2023/09/06 02:04:51;;;;;;;7.47;6.70;;;;;;;;;;2614874;54;20426;-79
2023/09/06 02:10:20;;;;;;;8.43;6.63;;;;;;;;;;2615132;54;20419;-77
2023/09/06 02:15:50;;;;;;;7.63;6.90;;;;;;;;;;2615984;54;20386;-77
2023/09/06 02:21:20;;;;;;;7.17;6.47;;;;;;;;;;2615370;54;20615;-76
2023/09/06 02:26:50;;;;;;;6.77;6.17;;;;;;;;;;2614847;54;20419;-78
2023/09/06 02:32:19;;;;;;;6.93;6.07;;;;;;;;;;2615522;39;20812;-78
2023/09/06 02:37:49;;;;;;;9.43;6.20;;;;;;;;;;2615206;54;20394;-80
2023/09/06 02:43:19;;;;;;;6.83;6.20;;;;;;;;;;2614364;54;20917;-79
2023/09/06 02:48:50;;;;;;;13.40;7.33;;;;;;;;;;2615117;54;20395;-77
2023/09/06 02:54:19;;;;;;;8.03;7.23;;;;;;;;;;2613269;54;20404;-78
2023/09/06 03:03:17;;;;;;;8.37;7.30;;;;;;;;;;2614432;54;20422;-78
2023/09/06 03:08:47;;;;;;;8.93;6.40;;;;;;;;;;2614594;54;20429;-79
2023/09/06 03:14:20;;;;;;;10.00;7.73;;;;;;;;;;2612451;54;20411;-79
2023/09/06 03:19:53;;;;;;;10.33;8.40;;;;;;;;;;2615551;39;20753;-78
2023/09/06 03:25:24;;;;;;;10.07;9.00;;;;;;;;;;2616172;54;20543;-78
2023/09/06 03:30:58;;;;;;;10.07;9.07;;;;;;;;;;2615699;54;20423;-80
2023/09/06 03:36:29;;;;;;;9.37;8.47;;;;;;;;;;2614183;54;20379;-79
2023/09/06 03:42:00;;;;;;;8.60;7.80;;;;;;;;;;2615627;54;20414;-78
2023/09/06 03:47:30;;;;;;;9.47;8.57;;;;;;;;;;2615564;54;20952;-77
2023/09/06 03:53:01;;;;;;;8.40;7.60;;;;;;;;;;2614910;54;20901;-77
2023/09/06 03:58:30;;;;;;;10.30;7.80;;;;;;;;;;2615558;54;20394;-77
2023/09/06 04:04:01;;;;;;;23.37;9.30;;;;;;;;;;2615925;54;20383;-77
2023/09/06 04:09:37;;;;;;;11.73;8.10;;;;;;;;;;2614608;54;20377;-78
2023/09/06 04:15:07;;;;;;;10.87;7.63;;;;;;;;;;2615159;54;20519;-78
2023/09/06 04:20:37;;;;;;;9.50;8.20;;;;;;;;;;2614883;54;20492;-78
2023/09/06 04:26:07;;;;;;;11.30;7.90;;;;;;;;;;2615728;54;20395;-78
2023/09/06 04:31:37;;;;;;;8.37;7.43;;;;;;;;;;2613851;54;20444;-78
2023/09/06 04:37:06;;;;;;;8.53;7.23;;;;;;;;;;2615627;54;20426;-78
2023/09/06 04:42:36;;;;;;;8.23;7.10;;;;;;;;;;2614813;54;20996;-76
2023/09/06 04:48:10;;;;;;;13.43;7.57;;;;;;;;;;2614178;54;20487;-77
2023/09/06 04:53:40;;;;;;;10.17;6.47;;;;;;;;;;2614824;54;20383;-77
2023/09/06 05:05:17;;;;;;;9.20;8.10;;;;;;;;;;2614328;54;20366;-73
2023/09/06 05:10:50;;;;;;;10.80;7.30;;;;;;;;;;2614523;54;20408;-73
2023/09/06 05:16:20;;;;;;;9.20;6.87;;;;;;;;;;2614448;54;20341;-76
2023/09/06 05:21:49;;;;;;;9.83;7.60;;;;;;;;;;2614135;54;20969;-73
2023/09/06 05:27:21;;;;;;;7.83;7.03;;;;;;;;;;2614472;54;20961;-74
2023/09/06 05:32:51;;;;;;;11.90;8.10;;;;;;;;;;2614606;54;20534;-73
2023/09/06 05:38:20;;;;;;;10.10;8.30;;;;;;;;;;2613470;46;20410;-73
2023/09/06 05:43:50;;;;;;;11.53;8.90;;;;;;;;;;2613371;54;20424;-73
2023/09/06 05:49:20;;;;;;;12.10;8.50;;;;;;;;;;2614178;54;20379;-73
2023/09/06 05:54:50;;;;;;;11.73;9.23;;;;;;;;;;2613785;54;20404;-74
2023/09/06 06:00:39;;;;;;;12.93;11.70;;;;;;;;;;2611894;54;20457;-74
2023/09/06 06:06:10;;;;;;;15.17;10.80;;;;;;;;;;2612587;54;20391;-73
2023/09/06 06:11:40;;;;;;;12.40;11.37;;;;;;;;;;2612993;54;20444;-78
2023/09/06 06:17:10;;;;;;;11.63;10.63;;;;;;;;;;2613913;54;20390;-77
2023/09/06 06:22:40;;;;;;;11.50;10.80;;;;;;;;;;2613914;54;20929;-76
2023/09/06 06:28:09;;;;;;;12.20;11.30;;;;;;;;;;2615171;39;20687;-77
2023/09/06 06:33:39;;;;;;;12.83;12.07;;;;;;;;;;2615196;39;20952;-77
2023/09/06 06:39:10;;;;;;;13.43;12.53;;;;;;;;;;2614063;54;21030;-77
2023/09/06 06:44:45;;;;;;;12.00;11.30;;;;;;;;;;2614210;54;20394;-77
2023/09/06 06:50:15;;;;;;;12.00;11.13;;;;;;;;;;2614484;54;20507;-78
2023/09/06 06:55:45;;;;;;;12.83;12.03;;;;;;;;;;2613591;54;20456;-76
2023/09/06 07:01:15;;;;;;;12.00;11.30;;;;;;;;;;2614104;54;20809;-76
2023/09/06 07:06:45;;;;;;;13.53;12.63;;;;;;;;;;2614149;54;20399;-77
2023/09/06 07:12:15;;;;;;;12.83;12.13;;;;;;;;;;2613854;54;20418;-75
2023/09/06 07:17:45;;;;;;;12.87;12.17;;;;;;;;;;2613349;54;20390;-76
2023/09/06 07:23:15;;;;;;;12.40;11.80;;;;;;;;;;2614729;54;20937;-75
2023/09/06 07:28:46;;;;;;;13.90;13.20;;;;;;;;;;2615713;54;20426;-76
2023/09/06 07:34:15;;;;;;;13.30;12.60;;;;;;;;;;2614590;54;20494;-75
2023/09/06 07:39:45;;;;;;;14.27;13.40;;;;;;;;;;2615193;39;20562;-75
2023/09/06 07:45:15;;;;;;;13.93;13.23;;;;;;;;;;2614464;54;20387;-75
2023/09/06 07:50:45;;;;;;;14.20;13.30;;;;;;;;;;2612226;54;20968;-75
2023/09/06 07:56:14;;;;;;;13.70;13.00;;;;;;;;;;2613982;54;20987;-78
2023/09/06 07:58:59;;;;;;;14.60;13.70;;;;;;;;;;2613454;39;20831;-76
2023/09/06 08:07:32;;;;;;;14.53;13.70;;;;;;;;;;2614510;54;20988;-75
2023/09/06 08:13:06;;;;;;;13.67;13.00;;;;;;;;;;2614452;54;20427;-75
2023/09/06 08:18:35;;;;;;;15.20;14.27;;;;;;;;;;2614044;54;20414;-76
2023/09/06 08:24:05;;;;;;;15.17;14.37;;;;;;;;;;2610922;54;20423;-76
2023/09/06 08:29:35;;;;;;;14.33;13.30;;;;;;;;;;2614597;54;20411;-73
2023/09/06 08:35:06;;;;;;;14.73;13.83;;;;;;;;;;2614391;54;21063;-75
2023/09/06 08:40:36;;;;;;;15.17;14.30;;;;;;;;;;2614778;54;20399;-76
2023/09/06 08:46:09;;;;;;;13.70;12.97;;;;;;;;;;2614828;54;20407;-76
2023/09/06 08:51:39;;;;;;;16.80;15.80;;;;;;;;;;2614718;54;20395;-76
2023/09/06 08:57:09;;;;;;;14.97;14.07;;;;;;;;;;2615022;54;20391;-75
2023/09/06 09:06:20;;;;;;;14.07;13.27;;;;;;;;;;2615138;39;20991;-76
2023/09/06 09:11:51;;;;;;;15.23;14.53;;;;;;;;;;2614817;39;20524;-75
2023/09/06 09:17:24;;;;;;;15.83;15.07;;;;;;;;;;2615084;46;20900;-76
2023/09/06 09:22:58;;;;;;;15.00;14.30;;;;;;;;;;2615121;54;20416;-76
2023/09/06 09:28:28;;;;;;;16.43;15.63;;;;;;;;;;2615383;54;20948;-76
2023/09/06 09:33:58;;;;;;;16.60;15.70;;;;;;;;;;2615058;54;20417;-76
2023/09/06 09:39:28;;;;;;;16.00;15.10;;;;;;;;;;2615206;54;20407;-76
2023/09/06 09:45:02;;;;;;;17.00;16.00;;;;;;;;;;2615384;54;20395;-77
2023/09/06 09:50:34;;;;;;;16.93;16.10;;;;;;;;;;2614529;54;20417;-77
2023/09/06 09:56:07;;;;;;;16.50;15.70;;;;;;;;;;2615380;54;20394;-76
2023/09/06 10:01:38;;;;;;;16.50;15.60;;;;;;;;;;2614709;54;20378;-77
2023/09/06 10:07:11;;;;;;;15.53;14.60;;;;;;;;;;2615099;54;20393;-76
2023/09/06 10:12:44;;;;;;;14.87;14.07;;;;;;;;;;2614371;54;20399;-77
2023/09/06 10:18:14;;;;;;;16.37;15.37;;;;;;;;;;2615781;54;20388;-76
2023/09/06 10:23:47;;;;;;;16.40;15.20;;;;;;;;;;2616481;54;20520;-76
2023/09/06 10:29:22;;;;;;;14.87;14.17;;;;;;;;;;2615675;54;20408;-76
2023/09/06 10:35:11;;;;;;;14.77;14.07;;;;;;;;;;2616972;54;20965;-76
2023/09/06 10:40:49;;;;;;;15.10;14.33;;;;;;;;;;2616063;54;20409;-76
2023/09/06 10:46:19;;;;;;;16.70;15.70;;;;;;;;;;2615258;54;20386;-76
2023/09/06 10:52:06;;;;;;;14.93;14.13;;;;;;;;;;2615159;54;20430;-74
2023/09/06 11:06:54;;;;;;;14.57;13.87;;;;;;;;;;2614453;54;20427;-74
2023/09/06 11:12:26;;;;;;;14.90;14.20;;;;;;;;;;2614089;54;20998;-72
2023/09/06 11:17:59;;;;;;;15.00;14.17;;;;;;;;;;2615166;54;20405;-73
2023/09/06 11:23:30;;;;;;;15.80;14.90;;;;;;;;;;2615222;54;20375;-75
2023/09/06 11:29:03;;;;;;;14.37;13.67;;;;;;;;;;2614441;54;20435;-75
2023/09/06 11:40:32;;;;;;;13.57;12.93;;;;;;;;;;2614588;54;20417;-74
2023/09/06 11:46:04;;;;;;;13.93;13.17;;;;;;;;;;2614653;54;20430;-73
2023/09/06 11:51:34;;;;;;;14.57;13.97;;;;;;;;;;2614394;54;20435;-73
2023/09/06 11:57:04;;;;;;;13.40;12.80;;;;;;;;;;2614821;54;20401;-74
2023/09/06 12:08:42;;;;;;;13.40;12.70;;;;;;;;;;2614656;54;20412;-74
2023/09/06 12:14:13;;;;;;;12.47;11.83;;;;;;;;;;2613912;54;20509;-73
2023/09/06 12:19:42;;;;;;;12.73;12.23;;;;;;;;;;2614240;54;20432;-74
2023/09/06 12:25:14;;;;;;;12.83;12.13;;;;;;;;;;2614474;54;20411;-74
2023/09/06 12:30:45;;;;;;;14.10;13.30;;;;;;;;;;2614862;54;20406;-74
2023/09/06 12:36:16;;;;;;;14.03;13.33;;;;;;;;;;2615027;54;20387;-75
2023/09/06 12:41:47;;;;;;;14.27;13.57;;;;;;;;;;2615534;31;20973;-73
2023/09/06 12:47:17;;;;;;;13.03;12.50;;;;;;;;;;2614930;54;20387;-74
2023/09/06 12:52:48;;;;;;;13.40;12.80;;;;;;;;;;2614598;54;20439;-73
2023/09/06 12:58:17;;;;;;;14.13;13.37;;;;;;;;;;2615219;54;20410;-74
2023/09/06 13:07:21;;;;;;;14.40;13.80;;;;;;;;;;2614851;54;20422;-74
2023/09/06 13:12:51;;;;;;;15.00;14.30;;;;;;;;;;2614451;54;20422;-74
2023/09/06 13:18:21;;;;;;;13.47;12.67;;;;;;;;;;2614671;39;20792;-73
2023/09/06 13:23:50;;;;;;;13.60;13.10;;;;;;;;;;2614660;54;20397;-75
2023/09/06 13:29:20;;;;;;;13.37;12.80;;;;;;;;;;2615886;39;20771;-75
2023/09/06 13:34:51;;;;;;;14.20;13.27;;;;;;;;;;2614669;39;20743;-75
2023/09/06 13:40:22;;;;;;;14.23;13.53;;;;;;;;;;2614478;54;20485;-74
2023/09/06 13:45:51;;;;;;;14.13;13.33;;;;;;;;;;2614907;54;20391;-73
2023/09/06 13:51:21;;;;;;;13.07;12.47;;;;;;;;;;2614261;54;20396;-73
2023/09/06 13:56:51;;;;;;;14.90;14.20;;;;;;;;;;2615029;54;20394;-73
2023/09/06 13:59:36;;;;;;;13.90;13.30;;;;;;;;;;2614309;47;20426;-73
2023/09/06 14:02:03;;;;;;;13.63;12.93;;;;;;;;;;2613702;51;20418;-73
2023/09/06 14:04:29;;;;;;;14.60;13.93;;;;;;;;;;2613958;54;20431;-74
2023/09/06 14:13:03;;;;;;;14.97;14.27;;;;;;;;;;2614527;54;20386;-74
2023/09/06 14:18:32;;;;;;;15.20;14.30;;;;;;;;;;2614973;54;21380;-75
2023/09/06 14:24:02;;;;;;;14.50;13.80;;;;;;;;;;2614800;54;20484;-74
2023/09/06 14:29:32;;;;;;;14.90;13.70;;;;;;;;;;2615315;54;20945;-74
2023/09/06 14:35:04;;;;;;;14.40;13.70;;;;;;;;;;2614686;54;20386;-74
2023/09/06 14:40:45;;;;;;;13.50;12.90;;;;;;;;;;2614356;54;20381;-74
2023/09/06 14:46:15;;;;;;;14.27;13.57;;;;;;;;;;2614707;54;20998;-74
2023/09/06 14:51:45;;;;;;;14.30;13.50;;;;;;;;;;2613774;54;20406;-74
2023/09/06 14:57:16;;;;;;;14.83;13.93;;;;;;;;;;2615298;39;20826;-73
2023/09/06 15:02:46;;;;;;;13.97;13.17;;;;;;;;;;2615072;54;20405;-74
2023/09/06 15:11:54;;;;;;;14.37;13.50;;;;;;;;;;2614635;54;20995;-74
2023/09/06 15:17:23;;;;;;;14.20;13.27;;;;;;;;;;2614768;54;21049;-74
2023/09/06 15:22:53;;;;;;;13.73;13.13;;;;;;;;;;2613879;54;20953;-74
2023/09/06 15:28:23;;;;;;;13.93;13.23;;;;;;;;;;2614707;46;20870;-74
2023/09/06 15:33:52;;;;;;;14.60;13.90;;;;;;;;;;2614968;54;20359;-74
2023/09/06 15:39:22;;;;;;;14.47;13.73;;;;;;;;;;2615817;54;20389;-74
2023/09/06 15:44:52;;;;;;;14.43;13.53;;;;;;;;;;2614632;39;20833;-74
2023/09/06 15:50:23;;;;;;;13.03;12.43;;;;;;;;;;2613644;54;21258;-74
2023/09/06 15:55:53;;;;;;;13.50;12.90;;;;;;;;;;2614094;54;20395;-75
2023/09/06 16:01:24;;;;;;;14.10;13.40;;;;;;;;;;2613673;54;20448;-75
2023/09/06 16:06:53;;;;;;;13.97;13.37;;;;;;;;;;2614228;54;21112;-74
2023/09/06 16:12:23;;;;;;;13.80;13.10;;;;;;;;;;2614165;54;21021;-73
2023/09/06 16:17:53;;;;;;;14.73;14.03;;;;;;;;;;2614583;54;20446;-74
2023/09/06 16:23:23;;;;;;;13.87;12.97;;;;;;;;;;2614205;54;20379;-74
2023/09/06 16:28:53;;;;;;;14.77;14.07;;;;;;;;;;2614423;54;20403;-73
2023/09/06 16:34:22;;;;;;;14.10;13.23;;;;;;;;;;2611411;54;20411;-75
2023/09/06 16:39:52;;;;;;;14.13;13.07;;;;;;;;;;2613761;54;20443;-75
2023/09/06 16:45:21;;;;;;;14.57;13.60;;;;;;;;;;2612745;54;20509;-74
2023/09/06 16:50:51;;;;;;;14.53;13.83;;;;;;;;;;2613663;54;20403;-75
2023/09/06 16:56:21;;;;;;;14.97;13.87;;;;;;;;;;2614821;54;20395;-75
2023/09/06 17:01:51;;;;;;;15.30;14.30;;;;;;;;;;2612809;54;21014;-73
2023/09/06 17:07:21;;;;;;;14.43;13.60;;;;;;;;;;2613097;54;20390;-74
2023/09/06 17:16:25;;;;;;;14.83;14.03;;;;;;;;;;2613772;54;20475;-75
2023/09/06 17:21:55;;;;;;;15.10;14.40;;;;;;;;;;2614424;54;20395;-74
2023/09/06 17:27:29;;;;;;;15.20;14.40;;;;;;;;;;2614801;39;20648;-75
2023/09/06 17:33:15;;;;;;;15.93;14.93;;;;;;;;;;2615523;39;20741;-74
2023/09/06 17:38:45;;;;;;;16.13;15.23;;;;;;;;;;2614924;54;20418;-73
2023/09/06 17:44:16;;;;;;;14.40;13.50;;;;;;;;;;2614762;54;20415;-75
2023/09/06 17:49:46;;;;;;;15.83;14.40;;;;;;;;;;2615214;54;20411;-75
2023/09/06 17:55:19;;;;;;;14.73;13.53;;;;;;;;;;2612711;54;20434;-74
2023/09/06 18:00:50;;;;;;;14.40;13.60;;;;;;;;;;2615173;39;20772;-77
2023/09/06 18:06:25;;;;;;;16.33;15.33;;;;;;;;;;2614866;39;20771;-77
2023/09/06 18:11:54;;;;;;;15.27;14.23;;;;;;;;;;2614435;54;20536;-78
2023/09/06 18:17:24;;;;;;;15.47;14.33;;;;;;;;;;2615938;39;20743;-77
2023/09/06 18:22:53;;;;;;;13.80;13.00;;;;;;;;;;2615563;39;20870;-76
2023/09/06 18:28:23;;;;;;;14.20;13.43;;;;;;;;;;2614659;54;20392;-79
2023/09/06 18:33:53;;;;;;;15.13;14.23;;;;;;;;;;2616093;39;20870;-77
2023/09/06 18:39:23;;;;;;;13.50;12.80;;;;;;;;;;2615630;54;20374;-76
2023/09/06 18:44:53;;;;;;;13.80;13.00;;;;;;;;;;2615602;54;20412;-76
2023/09/06 18:50:24;;;;;;;12.27;11.57;;;;;;;;;;2615056;54;20412;-80
2023/09/06 18:55:54;;;;;;;12.93;12.03;;;;;;;;;;2614736;54;20955;-78
2023/09/06 19:01:23;;;;;;;12.93;12.17;;;;;;;;;;2614958;54;20475;-77
2023/09/06 19:06:54;;;;;;;13.47;12.30;;;;;;;;;;2613987;54;20415;-77
2023/09/06 19:18:31;;;;;;;13.73;12.30;;;;;;;;;;2613102;54;20387;-75
2023/09/06 19:24:00;;;;;;;12.47;11.67;;;;;;;;;;2614479;54;20416;-75
2023/09/06 19:29:30;;;;;;;13.10;12.30;;;;;;;;;;2614632;54;20425;-76
2023/09/06 19:35:00;;;;;;;13.57;12.33;;;;;;;;;;2615072;54;20390;-77
2023/09/06 19:40:29;;;;;;;12.83;12.03;;;;;;;;;;2616007;54;20394;-77
2023/09/06 19:45:59;;;;;;;12.67;11.80;;;;;;;;;;2614929;54;20411;-76
2023/09/06 19:51:29;;;;;;;12.90;12.10;;;;;;;;;;2614159;54;20827;-77
2023/09/06 19:57:00;;;;;;;13.27;12.10;;;;;;;;;;2615679;54;20775;-77
2023/09/06 19:59:45;;;;;;;13.93;12.73;;;;;;;;;;2614218;47;20446;-78
2023/09/06 20:02:11;;;;;;;13.27;12.30;;;;;;;;;;2613728;54;21184;-78
2023/09/06 20:07:40;;;;;;;14.03;13.03;;;;;;;;;;2615102;54;20395;-78
2023/09/06 20:16:45;;;;;;;13.80;12.50;;;;;;;;;;2616050;54;20443;-78
2023/09/06 20:22:14;;;;;;;13.27;12.17;;;;;;;;;;2614944;39;20580;-75
2023/09/06 20:27:46;;;;;;;13.07;12.07;;;;;;;;;;2614442;54;20432;-75
2023/09/06 20:33:15;;;;;;;13.90;12.80;;;;;;;;;;2613994;54;20391;-75
2023/09/06 20:38:45;;;;;;;13.03;12.03;;;;;;;;;;2615104;46;20412;-75
2023/09/06 20:44:15;;;;;;;12.63;11.73;;;;;;;;;;2615311;54;20949;-74
2023/09/06 20:49:45;;;;;;;12.53;11.30;;;;;;;;;;2614496;54;21002;-75
2023/09/06 20:55:15;;;;;;;11.87;10.77;;;;;;;;;;2614256;54;20524;-74
2023/09/06 21:00:45;;;;;;;13.60;12.10;;;;;;;;;;2613909;54;20410;-76
2023/09/06 21:06:14;;;;;;;12.30;11.10;;;;;;;;;;2613567;54;20504;-74
2023/09/06 21:11:44;;;;;;;12.87;11.57;;;;;;;;;;2613934;54;20465;-74
2023/09/06 21:17:14;;;;;;;13.47;12.27;;;;;;;;;;2614079;54;20482;-74
2023/09/06 21:22:43;;;;;;;11.23;10.33;;;;;;;;;;2613262;54;20383;-75
2023/09/06 21:28:13;;;;;;;11.93;10.77;;;;;;;;;;2614350;54;20382;-77
2023/09/06 21:33:42;;;;;;;12.57;11.30;;;;;;;;;;2613821;54;20445;-75
2023/09/06 21:39:12;;;;;;;13.10;11.67;;;;;;;;;;2612419;54;20382;-77
2023/09/06 21:44:42;;;;;;;12.87;11.67;;;;;;;;;;2609542;54;20379;-75
2023/09/06 21:50:12;;;;;;;10.47;9.67;;;;;;;;;;2610488;31;20823;-75
2023/09/06 21:55:42;;;;;;;13.50;10.63;;;;;;;;;;2613766;54;20375;-76
2023/09/06 22:01:11;;;;;;;12.40;11.20;;;;;;;;;;2612707;54;20424;-76
2023/09/06 22:06:41;;;;;;;12.10;11.00;;;;;;;;;;2614294;54;20536;-76
2023/09/06 22:12:10;;;;;;;12.27;10.63;;;;;;;;;;2611042;54;20412;-76
2023/09/06 22:21:18;;;;;;;13.00;10.53;;;;;;;;;;2606391;54;20407;-77
2023/09/06 22:26:47;;;;;;;19.43;11.67;;;;;;;;;;2612515;54;20391;-78
2023/09/06 22:32:17;;;;;;;11.37;9.97;;;;;;;;;;2611424;54;20395;-78
2023/09/06 22:37:47;;;;;;;11.17;9.73;;;;;;;;;;2610500;54;20406;-77
2023/09/06 22:43:17;;;;;;;11.80;10.70;;;;;;;;;;2606862;54;20390;-77
2023/09/06 22:48:47;;;;;;;12.60;10.50;;;;;;;;;;2610134;54;20415;-78
2023/09/06 22:54:16;;;;;;;11.67;10.67;;;;;;;;;;2610562;54;20419;-78
2023/09/06 22:59:46;;;;;;;11.33;10.20;;;;;;;;;;2611013;54;20390;-79
2023/09/06 23:05:16;;;;;;;12.67;10.20;;;;;;;;;;2611163;54;20493;-76
2023/09/06 23:10:46;;;;;;;14.90;10.70;;;;;;;;;;2611497;54;21090;-75
2023/09/06 23:16:16;;;;;;;10.53;9.50;;;;;;;;;;2611072;54;20539;-75
2023/09/06 23:21:48;;;;;;;11.60;10.50;;;;;;;;;;2612434;54;20382;-77
2023/09/06 23:27:17;;;;;;;13.17;11.27;;;;;;;;;;2612247;54;20414;-75
2023/09/06 23:32:55;;;;;;;13.10;11.27;;;;;;;;;;2611482;54;20399;-74
2023/09/06 23:38:24;;;;;;;11.50;10.37;;;;;;;;;;2610031;54;20416;-74
2023/09/06 23:43:56;;;;;;;11.00;9.90;;;;;;;;;;2610205;54;20382;-74
2023/09/06 23:49:25;;;;;;;13.10;11.80;;;;;;;;;;2611533;54;20972;-77
2023/09/06 23:54:54;;;;;;;12.53;11.33;;;;;;;;;;2612046;39;20697;-78
